• Join FlightAware (Why Join?)
  • Login
  • US Flag 
05:03AM EDT


 

Airport Tracker/Info


-or-


 

Live Flight TrackerFlight Track Log ✈ N662US ✈ 23-Apr-2013 ✈ RJAA / NRT - KJFK

Flight Track Log - Related Links

Times and Time Zones

All times are in EDT time to prevent confusion due to time zone crossing. See the N662US flight status page for this flight to view local times or setup timezone preferences in your user account.

Time Position Orientation Groundspeed Altitude Reporting Facility
EDT Latitude Longitude Course Direction KTS MPH feet Rate Location/Type
02:27AM 35.8612 140.5063 45° Northeast  Level FlightAware Approximate
02:28AM 35.9576 140.6266 45° Northeast  Level FlightAware Approximate
02:29AM 36.0539 140.7472 45° Northeast  Level FlightAware Approximate
02:30AM 36.1500 140.8680 45° Northeast  Level FlightAware Approximate
02:31AM 36.2460 140.9892 45° Northeast  Level FlightAware Approximate
02:32AM 36.3431 141.1121 46° Northeast  Level FlightAware Approximate
02:33AM 36.4400 141.2354 46° Northeast  Level FlightAware Approximate
02:34AM 36.5369 141.3589 46° Northeast  Level FlightAware Approximate
02:34AM 35.5310 140.5390 46° Northeast 270 311 4,600  Level FlightAware
02:34AM 35.5420 140.5930 76° East 317 365 6,000 2,520 Climbing FlightAware
02:35AM 35.5390 140.6380 95° East 319 367 6,700 780 Climbing FlightAware
02:35AM 35.5330 140.6970 97° East 317 365 6,800 60 Climbing FlightAware
02:35AM 35.5280 140.7440 97° East 320 368 6,800  Level FlightAware
02:36AM 35.5220 140.7900 99° East 318 366 6,800  Level FlightAware
02:36AM 35.5170 140.8300 99° East 319 367 6,800 1,500 Level FlightAware
02:37AM 35.5090 140.9000 98° East 326 375 8,300 2,520 Climbing FlightAware
02:37AM 35.5050 140.9320 99° East 330 380 8,900 2,040 Climbing FlightAware
02:38AM 35.4970 141.0050 98° East 339 390 10,200 1,320 Climbing FlightAware
02:39AM 35.4820 141.1050 100° East 383 441 10,900 1,320 Climbing FlightAware
02:39AM 35.4500 141.2130 110° East 406 467 12,400 2,040 Climbing FlightAware
02:40AM 35.4210 141.3080 111° Southeast 410 472 14,000 1,920 Climbing FlightAware
02:41AM 35.3910 141.4050 111° Southeast 424 488 15,200 1,620 Climbing FlightAware
02:42AM 35.3620 141.5000 110° East 434 499 16,300 1,560 Climbing FlightAware
02:42AM 35.3370 141.5810 111° Southeast 446 513 17,200 1,020 Climbing FlightAware
02:43AM 35.3020 141.6960 110° East 448 516 17,800 1,260 Climbing FlightAware
02:44AM 35.2650 141.8160 111° Southeast 476 548 19,300 1,500 Climbing FlightAware
02:45AM 35.2260 141.9410 111° Southeast 494 568 20,200 1,200 Climbing FlightAware
02:45AM 35.1960 142.0360 111° Southeast 498 573 21,000 1,500 Climbing FlightAware
02:46AM 35.1640 142.1710 106° East 496 571 22,400 1,140 Climbing FlightAware
02:47AM 35.1700 142.3600 88° East 504 580 23,200 420 Climbing FlightAware
02:48AM 35.1740 142.4570 87° East 504 580 23,200 660 Level FlightAware
02:48AM 35.2130 142.5660 66° East 24,400 1,080 Climbing FlightAware
02:49AM 35.2480 142.6590 65° Northeast 519 597 24,500 60 Climbing FlightAware
02:50AM 35.2830 142.7500 65° Northeast 519 597 24,500 840 Level FlightAware
02:51AM 35.4990 142.9310 34° Northeast 508 585 26,500 840 Climbing FlightAware
02:52AM 35.5660 142.9860 34° Northeast 508 585 26,500  Level FlightAware
02:53AM 35.6480 143.0540 34° Northeast 508 585 26,500  Level FlightAware
02:53AM 35.7150 143.1090 34° Northeast 508 585 26,500 1,620 Level FlightAware
02:54AM 35.8670 143.2470 36° Northeast 532 612 29,000 1,620 Climbing FlightAware
02:55AM 35.9350 143.3060 35° Northeast 532 612 29,000  Level FlightAware
02:56AM 36.0210 143.3800 35° Northeast 532 612 29,000  Level FlightAware
02:56AM 36.0890 143.4400 35° Northeast 532 612 29,000  Level FlightAware
02:57AM 36.1580 143.4990 35° Northeast 532 612 29,000  Level FlightAware
02:58AM 36.2260 143.5580 35° Northeast 532 612 29,000  Level FlightAware
03:00AM 36.4370 143.6949 28° Northeast  Level Estimated
03:01AM 36.5599 143.7751 28° Northeast  Level Estimated
03:02AM 36.6827 143.8554 28° Northeast  Level Estimated
03:03AM 36.8053 143.9359 28° Northeast  Level Estimated
03:04AM 36.9279 144.0167 28° Northeast  Level Estimated
03:05AM 37.0503 144.0977 28° Northeast  Level Estimated
03:06AM 37.1728 144.1790 28° Northeast  Level Estimated
03:07AM 37.2951 144.2606 28° Northeast  Level Estimated
03:08AM 37.4174 144.3424 28° Northeast  Level Estimated
03:09AM 37.5397 144.4245 28° Northeast  Level Estimated
03:10AM 37.6619 144.5069 28° Northeast  Level Estimated
03:11AM 37.7840 144.5895 28° Northeast  Level Estimated
03:12AM 37.9061 144.6724 28° Northeast  Level Estimated
03:13AM 38.0282 144.7556 28° Northeast  Level Estimated
03:14AM 38.1501 144.8391 28° Northeast  Level Estimated
03:15AM 38.2720 144.9228 28° Northeast  Level Estimated
03:16AM 38.3939 145.0068 28° Northeast  Level Estimated
03:17AM 38.5157 145.0911 28° Northeast  Level Estimated
03:18AM 38.6374 145.1757 28° Northeast  Level Estimated
03:19AM 38.7591 145.2606 29° Northeast  Level Estimated
03:20AM 38.8807 145.3458 29° Northeast  Level Estimated
03:21AM 39.0022 145.4312 29° Northeast  Level Estimated
03:22AM 39.1237 145.5170 29° Northeast  Level Estimated
03:23AM 39.2451 145.6030 29° Northeast  Level Estimated
03:24AM 39.3665 145.6894 29° Northeast  Level Estimated
03:25AM 39.4878 145.7760 29° Northeast  Level Estimated
03:26AM 39.6090 145.8630 29° Northeast  Level Estimated
03:27AM 39.7301 145.9502 29° Northeast  Level Estimated
03:28AM 39.8512 146.0378 29° Northeast  Level Estimated
03:29AM 39.9723 146.1257 29° Northeast  Level Estimated
03:30AM 40.0932 146.2139 29° Northeast  Level Estimated
03:31AM 40.2141 146.3024 29° Northeast  Level Estimated
03:32AM 40.3349 146.3912 29° Northeast  Level Estimated
03:33AM 40.4557 146.4803 29° Northeast  Level Estimated
03:34AM 40.5764 146.5698 29° Northeast  Level Estimated
03:35AM 40.6970 146.6595 29° Northeast  Level Estimated
03:36AM 40.8176 146.7496 29° Northeast  Level Estimated
03:37AM 40.9380 146.8401 30° Northeast  Level Estimated
03:38AM 41.0584 146.9308 30° Northeast  Level Estimated
03:39AM 41.1788 147.0219 30° Northeast  Level Estimated
03:40AM 41.2991 147.1134 30° Northeast  Level Estimated
03:41AM 41.4193 147.2051 30° Northeast  Level Estimated
03:42AM 41.5394 147.2973 30° Northeast  Level Estimated
03:43AM 41.6594 147.3897 30° Northeast  Level Estimated
03:44AM 41.7794 147.4825 30° Northeast  Level Estimated
03:45AM 41.8993 147.5756 30° Northeast  Level Estimated
03:46AM 42.0191 147.6691 30° Northeast  Level Estimated
03:47AM 42.1389 147.7630 30° Northeast  Level Estimated
03:48AM 42.2589 147.8574 30° Northeast  Level Estimated
03:49AM 42.3788 147.9523 30° Northeast  Level Estimated
03:50AM 42.4986 148.0475 30° Northeast  Level Estimated
03:51AM 42.6184 148.1430 30° Northeast  Level Estimated
03:52AM 42.7381 148.2389 30° Northeast  Level Estimated
03:53AM 42.8577 148.3352 31° Northeast  Level Estimated
03:54AM 42.9772 148.4319 31° Northeast  Level Estimated
03:55AM 43.0966 148.5289 31° Northeast  Level Estimated
03:56AM 43.2160 148.6263 31° Northeast  Level Estimated
03:57AM 43.3353 148.7241 31° Northeast  Level Estimated
03:58AM 43.4544 148.8223 31° Northeast  Level Estimated
03:59AM 43.5736 148.9209 31° Northeast  Level Estimated
04:00AM 43.6926 149.0199 31° Northeast  Level Estimated
04:01AM 43.8115 149.1192 31° Northeast  Level Estimated
04:02AM 43.9304 149.2190 31° Northeast  Level Estimated
04:03AM 44.0491 149.3191 31° Northeast  Level Estimated
04:04AM 44.1678 149.4197 31° Northeast  Level Estimated
04:05AM 44.2864 149.5206 31° Northeast  Level Estimated
04:06AM 44.4049 149.6220 31° Northeast  Level Estimated
04:07AM 44.5233 149.7238 31° Northeast  Level Estimated
04:08AM 44.6416 149.8260 32° Northeast  Level Estimated
04:09AM 44.7599 149.9286 32° Northeast  Level Estimated
04:10AM 44.8780 150.0316 32° Northeast  Level Estimated
04:11AM 44.9960 150.1351 32° Northeast  Level Estimated
04:12AM 45.1140 150.2390 32° Northeast  Level Estimated
04:13AM 45.2318 150.3433 32° Northeast  Level Estimated
04:14AM 45.3496 150.4480 32° Northeast  Level Estimated
04:15AM 45.4673 150.5532 32° Northeast  Level Estimated
04:16AM 45.5848 150.6588 32° Northeast  Level Estimated
04:17AM 45.7023 150.7649 32° Northeast  Level Estimated
04:18AM 45.8196 150.8714 32° Northeast  Level Estimated
04:19AM 45.9369 150.9784 32° Northeast  Level Estimated
04:20AM 46.0541 151.0858 32° Northeast  Level Estimated
04:21AM 46.1712 151.1936 33° Northeast  Level Estimated
04:22AM 46.2881 151.3020 33° Northeast  Level Estimated
04:23AM 46.4050 151.4108 33° Northeast  Level Estimated
04:24AM 46.5217 151.5200 33° Northeast  Level Estimated
04:25AM 46.6384 151.6298 33° Northeast  Level Estimated
04:26AM 46.7549 151.7400 33° Northeast  Level Estimated
04:27AM 46.8714 151.8507 33° Northeast  Level Estimated
04:28AM 46.9877 151.9618 33° Northeast  Level Estimated
04:29AM 47.1039 152.0735 33° Northeast  Level Estimated
04:30AM 47.2201 152.1856 33° Northeast  Level Estimated
04:31AM 47.3361 152.2983 33° Northeast  Level Estimated
04:32AM 47.4520 152.4114 33° Northeast  Level Estimated
04:33AM 47.5678 152.5250 33° Northeast  Level Estimated
04:34AM 47.6834 152.6391 34° Northeast  Level Estimated
04:35AM 47.7990 152.7538 34° Northeast  Level Estimated
04:36AM 47.9144 152.8689 34° Northeast  Level Estimated
04:37AM 48.0298 152.9846 34° Northeast  Level Estimated
04:38AM 48.1450 153.1008 34° Northeast  Level Estimated
04:39AM 48.2601 153.2175 34° Northeast  Level Estimated
04:40AM 48.3750 153.3347 34° Northeast  Level Estimated
04:41AM 48.4899 153.4525 34° Northeast  Level Estimated
04:42AM 48.6046 153.5708 34° Northeast  Level Estimated
04:43AM 48.7192 153.6896 34° Northeast  Level Estimated
04:44AM 48.8337 153.8090 34° Northeast  Level Estimated
04:45AM 48.9481 153.9289 35° Northeast  Level Estimated
04:46AM 49.0624 154.0494 35° Northeast  Level Estimated
04:47AM 49.1765 154.1704 35° Northeast  Level Estimated
04:48AM 49.2905 154.2920 35° Northeast  Level Estimated
04:49AM 49.4043 154.4141 35° Northeast  Level Estimated
04:50AM 49.5181 154.5368 35° Northeast  Level Estimated
04:51AM 49.6316 154.6601 35° Northeast  Level Estimated
04:52AM 49.7451 154.7840 35° Northeast  Level Estimated
04:53AM 49.8585 154.9085 35° Northeast  Level Estimated
04:54AM 49.9717 155.0335 35° Northeast  Level Estimated
04:55AM 50.0847 155.1591 35° Northeast  Level Estimated
04:56AM 50.1977 155.2853 36° Northeast  Level Estimated
04:57AM 50.3105 155.4121 36° Northeast  Level Estimated
04:58AM 50.4231 155.5395 36° Northeast  Level Estimated
04:59AM 50.5355 155.6674 36° Northeast  Level Estimated
05:00AM 50.6477 155.7959 36° Northeast  Level Estimated
05:01AM 50.7598 155.9249 36° Northeast  Level Estimated
05:02AM 50.8717 156.0546 36° Northeast  Level Estimated
05:03AM 50.9835 156.1849 36° Northeast  Level Estimated
05:04AM 51.0951 156.3159 36° Northeast  Level Estimated
05:05AM 51.2066 156.4474 36° Northeast  Level Estimated
05:06AM 51.3180 156.5797 37° Northeast  Level Estimated
05:07AM 51.4292 156.7125 37° Northeast  Level Estimated
05:08AM 51.5402 156.8460 37° Northeast  Level Estimated
05:09AM 51.6511 156.9802 37° Northeast  Level Estimated
05:09AM 48.2833 160.6833 52° Northeast 548 631 30,000  Level Anchorage Center
05:10AM 51.7619 157.1150 37° Northeast  Level Estimated
05:11AM 51.8725 157.2505 37° Northeast  Level Estimated
05:12AM 51.9829 157.3866 37° Northeast  Level Estimated
05:13AM 52.0932 157.5234 37° Northeast  Level Estimated
05:14AM 52.2033 157.6609 37° Northeast  Level Estimated
05:15AM 49.9876 164.2176 55° Northeast 548 631 30,000  Level FlightAware Transoceanic
05:16AM 50.0742 164.4104 55° Northeast 548 631 30,000  Level FlightAware Transoceanic
05:17AM 50.1605 164.6039 55° Northeast 548 631 30,000  Level FlightAware Transoceanic
05:18AM 50.2465 164.7982 55° Northeast 548 631 30,000  Level FlightAware Transoceanic
05:19AM 50.3322 164.9931 56° Northeast 548 631 30,000  Level FlightAware Transoceanic
05:20AM 50.4175 165.1887 56° Northeast 548 631 30,000  Level FlightAware Transoceanic
05:21AM 50.5025 165.3851 56° Northeast 548 631 30,000  Level FlightAware Transoceanic
05:22AM 50.5872 165.5821 56° Northeast 548 631 30,000  Level FlightAware Transoceanic
05:23AM 50.6716 165.7798 56° Northeast 548 631 30,000  Level FlightAware Transoceanic
05:24AM 50.7556 165.9783 56° Northeast 548 631 30,000  Level FlightAware Transoceanic
05:25AM 50.8393 166.1775 56° Northeast 548 631 30,000  Level FlightAware Transoceanic
05:26AM 50.9226 166.3773 57° Northeast 548 631 30,000  Level FlightAware Transoceanic
05:27AM 51.0056 166.5780 57° Northeast 548 631 30,000  Level FlightAware Transoceanic
05:28AM 51.0882 166.7793 57° Northeast 548 631 30,000  Level FlightAware Transoceanic
05:29AM 51.1705 166.9813 57° Northeast 548 631 30,000  Level FlightAware Transoceanic
05:30AM 51.2525 167.1841 57° Northeast 548 631 30,000  Level FlightAware Transoceanic
05:31AM 51.3341 167.3875 57° Northeast 548 631 30,000  Level FlightAware Transoceanic
05:32AM 51.4153 167.5918 58° Northeast 548 631 30,000  Level FlightAware Transoceanic
05:33AM 51.4962 167.7967 58° Northeast 548 631 30,000  Level FlightAware Transoceanic
05:34AM 51.5768 168.0023 58° Northeast 548 631 30,000  Level FlightAware Transoceanic
05:35AM 51.6569 168.2087 58° Northeast 548 631 30,000  Level FlightAware Transoceanic
05:35AM 51.4833 168.3167 59° Northeast 550 633 30,000  Level Anchorage Center
05:36AM 51.7367 168.4158 58° Northeast 548 631 30,000  Level FlightAware Transoceanic
05:36AM 51.5500 168.5167 62° Northeast 560 644 30,000  Level Anchorage Center
05:37AM 51.8162 168.6237 58° Northeast 548 631 30,000  Level FlightAware Transoceanic
05:37AM 51.6333 168.7333 58° Northeast 560 644 30,000  Level Anchorage Center
05:38AM 51.8952 168.8323 59° Northeast 548 631 30,000  Level FlightAware Transoceanic
05:38AM 51.7167 168.9667 60° Northeast 560 644 30,000  Level Anchorage Center
05:39AM 51.9740 169.0416 59° Northeast 548 631 30,000  Level FlightAware Transoceanic
05:39AM 51.7833 169.1667 62° Northeast 560 644 30,000  Level Anchorage Center
05:40AM 52.0523 169.2516 59° Northeast 548 631 30,000  Level FlightAware Transoceanic
05:40AM 51.8667 169.4000 60° Northeast 550 633 30,000  Level Anchorage Center
05:41AM 51.9167 169.5833 66° East 550 633 30,000  Level Anchorage Center
05:42AM 52.0000 169.8167 60° Northeast 550 633 30,000  Level Anchorage Center
05:43AM 52.0667 170.0000 59° Northeast 550 633 30,000  Level Anchorage Center
05:44AM 52.1500 170.2333 60° Northeast 550 633 30,000  Level Anchorage Center
05:45AM 52.2167 170.4333 61° Northeast 540 621 30,000  Level Anchorage Center
05:46AM 52.3000 170.6500 58° Northeast 540 621 30,000  Level Anchorage Center
05:47AM 52.3833 170.8333 53° Northeast 550 633 30,000 240 Level Anchorage Center
05:48AM 52.4833 171.0500 53° Northeast 550 633 30,500 960 Climbing Anchorage Center
05:49AM 52.5667 171.2667 58° Northeast 560 644 32,000 720 Climbing Anchorage Center
05:50AM 52.6500 171.4333 50° Northeast 550 633 32,000  Level Anchorage Center
05:51AM 52.7500 171.6500 53° Northeast 530 610 32,000  Level Anchorage Center
05:52AM 52.8167 171.8333 59° Northeast 530 610 32,000  Level Anchorage Center
05:53AM 52.9167 172.0667 55° Northeast 540 621 32,000  Level Anchorage Center
05:54AM 52.9833 172.2333 56° Northeast 550 633 32,000  Level Anchorage Center
05:55AM 53.0833 172.4667 54° Northeast 540 621 32,000  Level Anchorage Center
05:56AM 53.1667 172.6333 50° Northeast 540 621 32,000  Level Anchorage Center
05:57AM 53.2500 172.8667 59° Northeast 540 621 32,000  Level Anchorage Center
05:58AM 53.3333 173.0500 53° Northeast 540 621 32,000  Level Anchorage Center
05:59AM 53.4167 173.2667 57° Northeast 540 621 32,000  Level Anchorage Center
06:00AM 53.5167 173.5000 54° Northeast 530 610 32,000  Level Anchorage Center
06:01AM 53.5833 173.6833 58° Northeast 540 621 32,000  Level Anchorage Center
06:02AM 53.6667 173.9167 59° Northeast 550 633 32,000  Level Anchorage Center
06:03AM 53.7500 174.1000 52° Northeast 540 621 32,000  Level Anchorage Center
06:04AM 53.8333 174.3333 59° Northeast 530 610 32,000  Level Anchorage Center
06:05AM 53.9000 174.5333 60° Northeast 540 621 32,000  Level Anchorage Center
06:06AM 53.9833 174.7667 59° Northeast 540 621 32,000  Level Anchorage Center
06:07AM 54.0500 174.9500 58° Northeast 530 610 32,000  Level Anchorage Center
06:08AM 54.1333 175.1833 59° Northeast 520 598 32,000  Level Anchorage Center
06:09AM 54.2000 175.3667 58° Northeast 520 598 32,000  Level Anchorage Center
06:10AM 54.2833 175.6000 58° Northeast 520 598 32,000  Level Anchorage Center
06:11AM 54.3500 175.7833 58° Northeast 510 587 32,000  Level Anchorage Center
06:12AM 54.4333 176.0167 58° Northeast 510 587 32,000  Level Anchorage Center
06:13AM 54.5167 176.2500 58° Northeast 520 598 32,000  Level Anchorage Center
06:14AM 54.5833 176.4333 58° Northeast 510 587 32,000  Level Anchorage Center
06:15AM 54.6500 176.6667 64° Northeast 520 598 32,000  Level Anchorage Center
06:16AM 54.7167 176.8500 58° Northeast 510 587 32,000  Level Anchorage Center
06:17AM 54.8000 177.0833 58° Northeast 510 587 32,000  Level Anchorage Center
06:18AM 54.8500 177.2667 65° Northeast 510 587 32,000  Level Anchorage Center
06:19AM 54.9333 177.5167 60° Northeast 500 575 32,000  Level Anchorage Center
06:21AM 55.0555 177.8951 60° Northeast  Level FlightAware Approximate
06:28AM 55.5277 179.4173 61° Northeast  Level FlightAware Approximate
06:29AM 55.5936 179.6377 62° Northeast  Level FlightAware Approximate
06:30AM 55.6591 179.8589 62° Northeast  Level FlightAware Approximate
06:31AM 55.7242 -179.9192 62° Northeast  Level FlightAware Approximate
06:32AM 55.7888 -179.6965 63° Northeast  Level FlightAware Approximate
06:33AM 55.8531 -179.4731 63° Northeast  Level FlightAware Approximate
06:34AM 55.9169 -179.2489 63° Northeast  Level FlightAware Approximate
06:35AM 55.9804 -179.0240 63° Northeast  Level FlightAware Approximate
06:36AM 56.0434 -178.7984 63° Northeast  Level FlightAware Approximate
06:37AM 56.1060 -178.5721 64° Northeast  Level FlightAware Approximate
06:38AM 56.1683 -178.3450 64° Northeast  Level FlightAware Approximate
06:39AM 56.2304 -178.1175 63° Northeast  Level FlightAware Approximate
06:40AM 56.2933 -177.8903 63° Northeast  Level FlightAware Approximate
06:41AM 56.3558 -177.6624 64° Northeast  Level FlightAware Approximate
06:42AM 56.4179 -177.4337 64° Northeast  Level FlightAware Approximate
06:43AM 56.4796 -177.2043 64° Northeast  Level FlightAware Approximate
06:44AM 56.5409 -176.9741 64° Northeast  Level FlightAware Approximate
06:45AM 56.6017 -176.7432 64° Northeast  Level FlightAware Approximate
06:46AM 56.6621 -176.5115 65° Northeast  Level FlightAware Approximate
06:47AM 56.7219 -176.2790 65° Northeast  Level FlightAware Approximate
06:48AM 56.7801 -176.0448 66° East  Level FlightAware Approximate
06:49AM 56.8379 -175.8099 66° East  Level FlightAware Approximate
06:50AM 56.8953 -175.5742 66° East  Level FlightAware Approximate
06:51AM 56.9522 -175.3378 66° East  Level FlightAware Approximate
06:52AM 57.0086 -175.1007 66° East  Level FlightAware Approximate
06:53AM 57.0646 -174.8629 66° East  Level FlightAware Approximate
06:54AM 57.1202 -174.6243 67° East  Level FlightAware Approximate
06:55AM 57.1753 -174.3851 67° East  Level FlightAware Approximate
06:55AM 57.1167 -174.6333 68° East 470 541 32,000  Level Anchorage Center
06:56AM 57.2299 -174.1451 67° East  Level FlightAware Approximate
06:56AM 57.1667 -174.4167 67° East 470 541 32,000  Level Anchorage Center
06:57AM 57.2841 -173.9044 67° East  Level FlightAware Approximate
06:57AM 57.2000 -174.1833 75° East 470 541 32,000  Level Anchorage Center
06:58AM 57.3379 -173.6631 67° East  Level FlightAware Approximate
06:58AM 57.2667 -173.9500 62° Northeast 490 564 32,700  Level Anchorage Center
06:59AM 57.3920 -173.4217 67° East  Level FlightAware Approximate
06:59AM 57.3167 -173.7333 67° East 470 541 33,000  Level Anchorage Center
07:00AM 57.4456 -173.1795 68° East  Level FlightAware Approximate
07:00AM 57.3667 -173.5000 68° East 460 529 33,000  Level Anchorage Center
07:01AM 57.4167 -173.2833 67° East 450 518 33,000  Level Anchorage Center
07:02AM 57.4667 -173.0667 67° East 450 518 33,000  Level Anchorage Center
07:03AM 57.5167 -172.8500 67° East 440 506 33,000  Level Anchorage Center
07:04AM 57.5500 -172.6333 74° East 430 495 33,000  Level Anchorage Center
07:05AM 57.6000 -172.4333 65° Northeast 440 506 33,000  Level Anchorage Center
07:06AM 57.6500 -172.2167 67° East 430 495 33,000  Level Anchorage Center
07:07AM 57.6833 -172.0000 74° East 440 506 33,000  Level Anchorage Center
07:08AM 57.7333 -171.7833 67° East 430 495 33,000  Level Anchorage Center
07:09AM 57.7833 -171.5833 65° Northeast 430 495 33,000 -540 Level Anchorage Center
07:10AM 57.8167 -171.3667 74° East 420 483 32,000 -2,040 Descending Anchorage Center
07:11AM 57.8667 -171.1500 66° East 440 506 29,000 -1,500 Descending Anchorage Center
07:12AM 57.9167 -170.9333 66° East 440 506 29,000  Level Anchorage Center
07:13AM 57.9500 -170.7667 69° East 440 506 29,000  Level Anchorage Center
07:14AM 57.9833 -170.5500 74° East 430 495 29,000  Level Anchorage Center
07:15AM 58.0167 -170.3167 75° East 450 518 29,000  Level Anchorage Center
07:16AM 58.0500 -170.0833 75° East 450 518 29,000  Level Anchorage Center
07:17AM 58.0667 -169.8500 82° East 450 518 29,000  Level Anchorage Center
07:18AM 58.1000 -169.6167 75° East 450 518 29,000  Level Anchorage Center
07:19AM 58.1333 -169.3833 75° East 440 506 29,000  Level Anchorage Center
07:20AM 58.1667 -169.1667 74° East 440 506 29,000  Level Anchorage Center
07:21AM 58.1833 -168.9333 82° East 440 506 29,000  Level Anchorage Center
07:22AM 58.2167 -168.7000 75° East 440 506 29,000  Level Anchorage Center
07:23AM 58.2500 -168.4833 74° East 430 495 29,000  Level Anchorage Center
07:24AM 58.2833 -168.2500 75° East 440 506 29,000  Level Anchorage Center
07:25AM 58.3000 -168.0000 83° East 460 529 29,000  Level Anchorage Center
07:26AM 58.3333 -167.7667 75° East 460 529 29,000  Level Anchorage Center
07:27AM 58.3667 -167.5333 75° East 470 541 29,000  Level Anchorage Center
07:28AM 58.3833 -167.2833 83° East 470 541 29,000  Level Anchorage Center
07:29AM 58.4167 -167.0333 76° East 470 541 29,000  Level Anchorage Center
07:30AM 58.4500 -166.7667 76° East 480 552 29,000  Level Anchorage Center
07:31AM 58.4833 -166.4833 77° East 490 564 29,000  Level Anchorage Center
07:32AM 58.5000 -166.2833 81° East 480 552 29,000  Level Anchorage Center
07:33AM 58.5167 -166.0333 83° East 490 564 29,000  Level Anchorage Center
07:34AM 58.5500 -165.7833 76° East 490 564 29,000  Level Anchorage Center
07:35AM 58.5667 -165.5167 83° East 490 564 29,000  Level Anchorage Center
07:36AM 58.6000 -165.2667 76° East 480 552 29,000  Level Anchorage Center
07:37AM 58.6167 -165.0000 83° East 480 552 29,000  Level Anchorage Center
07:38AM 58.6500 -164.8000 72° East 480 552 29,000  Level Anchorage Center
07:39AM 58.6667 -164.5500 83° East 480 552 29,000  Level Anchorage Center
07:40AM 58.6833 -164.2833 83° East 480 552 29,000  Level Anchorage Center
07:41AM 58.7167 -164.0333 75° East 480 552 29,000  Level Anchorage Center
07:42AM 58.7333 -163.7833 83° East 470 541 29,000  Level Anchorage Center
07:43AM 58.7500 -163.5333 83° East 470 541 29,000  Level Anchorage Center
07:44AM 58.7667 -163.2667 83° East 470 541 29,000  Level Anchorage Center
07:45AM 58.8000 -163.0167 75° East 480 552 29,000  Level Anchorage Center
07:46AM 58.8167 -162.7500 83° East 480 552 29,000  Level Anchorage Center
07:47AM 58.8333 -162.5500 81° East 470 541 29,000  Level Anchorage Center
07:48AM 58.8500 -162.2333 84° East 470 541 29,000  Level Anchorage Center
07:49AM 58.8667 -162.0333 81° East 470 541 29,000  Level Anchorage Center
07:50AM 58.8833 -161.7667 83° East 480 552 29,000  Level Anchorage Center
07:51AM 58.9000 -161.5167 83° East 480 552 29,000  Level Anchorage Center
07:52AM 58.9167 -161.2500 83° East 490 564 29,000  Level Anchorage Center
07:53AM 58.9333 -160.9833 83° East 490 564 29,000  Level Anchorage Center
07:54AM 58.9500 -160.7167 83° East 490 564 29,000  Level Anchorage Center
07:55AM 58.9667 -160.4500 83° East 500 575 29,000  Level Anchorage Center
07:56AM 58.9833 -160.1667 83° East 510 587 29,000  Level Anchorage Center
07:57AM 59.0000 -159.9000 83° East 520 598 29,000 480 Level Anchorage Center
07:58AM 59.0500 -159.6167 71° East 530 610 30,000 1,260 Climbing Anchorage Center
07:59AM 59.0833 -159.3333 77° East 540 621 31,600 1,500 Climbing Anchorage Center
08:00AM 59.1333 -159.0500 71° East 530 610 33,000 660 Climbing Anchorage Center
08:01AM 59.1667 -158.7667 77° East 530 610 33,000  Level Anchorage Center
08:02AM 59.2000 -158.4833 77° East 530 610 33,000  Level Anchorage Center
08:03AM 59.2333 -158.2000 77° East 530 610 33,000  Level Anchorage Center
08:04AM 59.2667 -157.9167 77° East 530 610 33,000  Level Anchorage Center
08:05AM 59.3000 -157.6333 77° East 520 598 33,000  Level Anchorage Center
08:06AM 59.3333 -157.3667 76° East 530 610 33,000  Level Anchorage Center
08:07AM 59.3667 -157.0833 77° East 530 610 33,000  Level Anchorage Center
08:08AM 59.4000 -156.8000 77° East 520 598 33,000  Level Anchorage Center
08:09AM 59.4333 -156.5167 77° East 530 610 33,000  Level Anchorage Center
08:10AM 59.4667 -156.2167 78° East 530 610 33,000  Level Anchorage Center
08:11AM 59.5000 -155.9333 77° East 530 610 33,000  Level Anchorage Center
08:12AM 59.5333 -155.6500 77° East 530 610 33,000  Level Anchorage Center
08:13AM 59.5500 -155.3667 83° East 530 610 33,000  Level Anchorage Center
08:14AM 59.5833 -155.0833 77° East 530 610 33,000  Level Anchorage Center
08:15AM 59.6167 -154.7833 77° East 530 610 33,000  Level Anchorage Center
08:16AM 59.6500 -154.4333 79° East 530 610 33,000  Level Anchorage Center
08:17AM 59.6833 -154.1500 77° East 540 621 33,000  Level Anchorage Center
08:18AM 59.7000 -153.9000 82° East 520 598 33,000  Level Anchorage Center
08:23AM 59.8450 -152.3640 82° East 538 619 33,000  Level FlightAware
08:24AM 59.8610 -152.1540 81° East 539 620 33,000  Level FlightAware
08:25AM 59.8780 -151.9320 81° East 538 619 33,000  Level FlightAware
08:25AM 59.8930 -151.7330 81° East 536 617 33,000  Level FlightAware
08:27AM 59.9250 -151.2890 82° East 537 618 33,000  Level FlightAware
08:28AM 59.9410 -151.0620 82° East 537 618 33,000  Level FlightAware
08:28AM 59.9540 -150.8630 82° East 538 619 33,000  Level FlightAware
08:29AM 59.9690 -150.6400 82° East 540 621 33,000  Level FlightAware
08:30AM 59.9810 -150.4470 83° East 541 623 33,000  Level FlightAware
08:30AM 59.9940 -150.2460 83° East 542 624 33,000  Level FlightAware
08:31AM 60.0040 -150.0460 84° East 539 620 33,000  Level FlightAware
08:32AM 60.0050 -149.8440 89° East 538 619 33,000  Level FlightAware
08:32AM 60.0030 -149.6300 91° East 538 619 33,000  Level FlightAware
08:33AM 60.0000 -149.4000 91° East 539 620 33,000  Level FlightAware
08:34AM 59.9980 -149.2070 91° East 539 620 33,000  Level FlightAware
08:34AM 59.9980 -149.0590 90° East 539 620 33,000  Level FlightAware
08:35AM 59.9920 -148.8160 93° East 540 621 33,000  Level FlightAware
08:36AM 59.9890 -148.5280 91° East 540 621 33,000  Level FlightAware
08:37AM 59.9870 -148.3580 91° East 540 621 33,000  Level FlightAware
08:38AM 59.9860 -148.1880 91° East 540 621 33,000  Level FlightAware
08:38AM 59.9840 -148.0180 91° East 540 621 33,000  Level FlightAware
08:39AM 59.9830 -147.8490 91° East 540 621 33,000  Level FlightAware
08:40AM 59.9810 -147.6360 91° East 540 621 33,000  Level FlightAware
08:40AM 59.9790 -147.4670 91° East 540 621 33,000  Level FlightAware
08:41AM 59.9780 -147.2970 91° East 540 621 33,000  Level FlightAware
08:42AM 59.9760 -147.1270 91° East 540 621 33,000  Level FlightAware
08:43AM 59.9740 -146.9150 91° East 540 621 33,000  Level FlightAware
08:43AM 59.9730 -146.7450 91° East 540 621 33,000  Level FlightAware
08:44AM 59.9710 -146.5760 91° East 540 621 33,000  Level FlightAware
08:45AM 59.9700 -146.4060 91° East 540 621 33,000  Level FlightAware
08:45AM 59.9680 -146.1940 91° East 540 621 33,000  Level FlightAware
08:46AM 59.8833 -145.6000 91° East 540 621 33,000  Level Anchorage Center
08:47AM 59.8667 -145.3000 96° East 540 621 33,000  Level Anchorage Center
08:48AM 59.8667 -145.0000 90° East 530 610 33,000  Level Anchorage Center
08:49AM 59.8500 -144.7000 96° East 540 621 33,000  Level Anchorage Center
08:50AM 59.8333 -144.4000 96° East 540 621 33,000  Level Anchorage Center
08:51AM 59.8167 -144.1000 96° East 530 610 33,000  Level Anchorage Center
08:52AM 59.8000 -143.8000 96° East 530 610 33,000  Level Anchorage Center
08:53AM 59.7833 -143.5000 96° East 540 621 33,000  Level Anchorage Center
08:54AM 59.7667 -143.2167 97° East 540 621 33,000  Level Anchorage Center
08:55AM 59.7500 -142.9167 96° East 540 621 33,000  Level Anchorage Center
08:56AM 59.7333 -142.6167 96° East 530 610 33,000  Level Anchorage Center
08:57AM 59.7167 -142.3167 96° East 540 621 33,000  Level Anchorage Center
08:58AM 59.6833 -142.0167 102° East 540 621 33,000  Level Anchorage Center
08:59AM 59.6667 -141.7167 96° East 540 621 33,000  Level Anchorage Center
09:00AM 59.6500 -141.4333 97° East 540 621 33,000  Level Anchorage Center
09:01AM 59.6167 -141.1333 102° East 550 633 33,000  Level Anchorage Center
09:02AM 59.6000 -140.8333 96° East 550 633 33,000 60 Level Anchorage Center
09:03AM 59.5833 -140.5333 96° East 550 633 33,200 660 Climbing Anchorage Center
09:04AM 59.5500 -140.2333 102° East 550 633 34,400 900 Climbing Anchorage Center
09:05AM 59.5333 -139.9833 97° East 550 633 35,000 300 Climbing Anchorage Center
09:06AM 59.5000 -139.6833 102° East 550 633 35,000  Level Anchorage Center
09:07AM 59.4667 -139.3000 100° East 570 656 35,000  Level Anchorage Center
09:08AM 59.4333 -139.0000 102° East 560 644 35,000  Level Anchorage Center
09:09AM 59.4000 -138.7000 102° East 560 644 35,000  Level Anchorage Center
09:10AM 59.3667 -138.4000 102° East 560 644 35,000  Level Anchorage Center
09:11AM 59.3167 -138.1000 108° East 560 644 35,000  Level Anchorage Center
09:12AM 59.2833 -137.8000 102° East 560 644 35,000  Level Anchorage Center
09:13AM 59.2500 -137.4833 102° East 570 656 35,000  Level Anchorage Center
09:14AM 59.2000 -137.1833 108° East 570 656 35,000  Level Anchorage Center
09:15AM 59.1667 -136.9000 103° East 570 656 35,000  Level Anchorage Center
09:16AM 59.1333 -136.5833 101° East 580 667 35,000  Level Anchorage Center
09:17AM 59.0833 -136.2833 108° East 570 656 35,000  Level Anchorage Center
09:18AM 59.0500 -136.0000 103° East 570 656 35,000  Level Anchorage Center
09:19AM 59.0000 -135.7000 108° East 570 656 35,000  Level Anchorage Center
09:20AM 58.9500 -135.4000 108° East 570 656 35,000  Level Anchorage Center
09:21AM 58.9167 -135.1000 102° East 570 656 35,000  Level Anchorage Center
09:22AM 58.8667 -134.8000 108° East 570 656 35,000  Level Anchorage Center
09:23AM 58.8167 -134.5167 109° East 570 656 35,000  Level Anchorage Center
09:24AM 58.7667 -134.2167 108° East 570 656 35,000  Level Anchorage Center
09:25AM 58.7333 -133.9833 105° East 570 656 35,000  Level Anchorage Center
09:26AM 58.6833 -133.6833 108° East 580 667 35,000  Level Anchorage Center
09:27AM 58.6333 -133.4000 109° East 560 644 35,000  Level Anchorage Center
09:28AM 58.6000 -133.1333 103° East 530 610 35,000  Level Anchorage Center
09:30AM 58.5374 -132.7676 108° East  Level FlightAware Approximate
09:37AM 58.2114 -130.9813 110° East  Level FlightAware Approximate
09:38AM 58.1623 -130.7292 110° East  Level FlightAware Approximate
09:39AM 58.1127 -130.4778 110° East  Level FlightAware Approximate
09:40AM 58.0626 -130.2271 111° Southeast  Level FlightAware Approximate
09:41AM 58.0121 -129.9770 111° Southeast  Level FlightAware Approximate
09:42AM 57.9617 -129.7272 111° Southeast  Level FlightAware Approximate
09:43AM 57.9109 -129.4780 111° Southeast  Level FlightAware Approximate
09:44AM 57.8596 -129.2296 111° Southeast  Level FlightAware Approximate
09:45AM 57.8089 -128.9874 111° Southeast  Level FlightAware Approximate
09:46AM 57.7578 -128.7459 112° Southeast  Level FlightAware Approximate
09:47AM 57.7063 -128.5051 112° Southeast  Level FlightAware Approximate
09:48AM 57.6542 -128.2649 112° Southeast  Level FlightAware Approximate
09:49AM 57.6018 -128.0255 112° Southeast  Level FlightAware Approximate
09:50AM 57.5489 -127.7867 112° Southeast  Level FlightAware Approximate
09:51AM 57.4955 -127.5486 113° Southeast  Level FlightAware Approximate
09:52AM 57.4417 -127.3113 113° Southeast  Level FlightAware Approximate
09:53AM 57.3874 -127.0746 113° Southeast  Level FlightAware Approximate
09:54AM 57.3327 -126.8386 113° Southeast  Level FlightAware Approximate
09:55AM 57.2775 -126.6034 113° Southeast  Level FlightAware Approximate
09:56AM 57.2219 -126.3689 114° Southeast  Level FlightAware Approximate
09:57AM 57.1656 -126.1352 114° Southeast  Level FlightAware Approximate
09:58AM 57.1089 -125.9023 114° Southeast  Level FlightAware Approximate
09:59AM 57.0517 -125.6701 114° Southeast  Level FlightAware Approximate
10:00AM 56.9941 -125.4386 114° Southeast  Level FlightAware Approximate
10:00AM 56.9000 -125.1667 115° Southeast 520 598 35,000  Level Edmonton Center
10:01AM 56.9361 -125.2079 115° Southeast  Level FlightAware Approximate
10:01AM 56.8500 -124.9500 113° Southeast 510 587 35,000  Level Edmonton Center
10:02AM 56.8778 -124.9778 115° Southeast  Level FlightAware Approximate
10:02AM 56.7833 -124.7167 117° Southeast 510 587 35,000  Level Edmonton Center
10:03AM 56.8198 -124.7477 115° Southeast  Level FlightAware Approximate
10:03AM 56.7333 -124.4667 110° East 510 587 35,000  Level Edmonton Center
10:04AM 56.7613 -124.5184 115° Southeast  Level FlightAware Approximate
10:04AM 56.6667 -124.2500 119° Southeast 510 587 35,000  Level Edmonton Center
10:05AM 56.7025 -124.2897 115° Southeast  Level FlightAware Approximate
10:05AM 56.6000 -124.0167 117° Southeast 510 587 35,000  Level Edmonton Center
10:06AM 56.5333 -123.7667 116° Southeast 510 587 35,000  Level Edmonton Center
10:07AM 56.4833 -123.5500 113° Southeast 510 587 35,000  Level Edmonton Center
10:08AM 56.4167 -123.3167 117° Southeast 510 587 35,000  Level Edmonton Center
10:09AM 56.3500 -123.0667 116° Southeast 510 587 35,000  Level Edmonton Center
10:10AM 56.2833 -122.8500 119° Southeast 510 587 35,000  Level Edmonton Center
10:11AM 56.2167 -122.6000 116° Southeast 510 587 35,000  Level Edmonton Center
10:12AM 56.1500 -122.3667 117° Southeast 510 587 35,000  Level Edmonton Center
10:13AM 56.0833 -122.1500 119° Southeast 510 587 35,000  Level Edmonton Center
10:14AM 56.0167 -121.9333 119° Southeast 510 587 35,000  Level Edmonton Center
10:15AM 55.9667 -121.7333 114° Southeast 510 587 35,000  Level Edmonton Center
10:16AM 55.9000 -121.4833 115° Southeast 500 575 35,000  Level Edmonton Center
10:17AM 55.8167 -121.2667 124° Southeast 510 587 35,000  Level Edmonton Center
10:18AM 55.7667 -121.0167 109° East 500 575 35,000  Level Edmonton Center
10:19AM 55.7000 -120.8000 119° Southeast 510 587 35,000  Level Edmonton Center
10:20AM 55.6167 -120.5833 124° Southeast 510 587 35,000  Level Edmonton Center
10:21AM 55.5667 -120.3833 114° Southeast 510 587 35,000  Level Edmonton Center
10:22AM 55.4833 -120.1333 120° Southeast 510 587 35,000  Level Edmonton Center
10:23AM 55.4167 -119.9167 118° Southeast 510 587 35,000  Level Edmonton Center
10:24AM 55.3500 -119.7167 120° Southeast 510 587 35,000  Level Edmonton Center
10:25AM 55.3000 -119.4500 108° East 500 575 35,000  Level Edmonton Center
10:26AM 55.2500 -119.2500 114° Southeast 490 564 35,000  Level Edmonton Center
10:27AM 55.2000 -119.0000 109° East 500 575 35,000  Level Edmonton Center
10:28AM 55.1333 -118.7833 118° Southeast 510 587 35,000  Level Edmonton Center
10:29AM 55.0833 -118.5500 110° East 510 587 35,000  Level Edmonton Center
10:30AM 55.0167 -118.3000 115° Southeast 510 587 35,000  Level Edmonton Center
10:31AM 54.9833 -118.1000 106° East 510 587 35,000  Level Edmonton Center
10:32AM 54.9167 -117.8500 115° Southeast 510 587 35,000  Level Edmonton Center
10:33AM 54.8500 -117.6500 120° Southeast 510 587 35,000  Level Edmonton Center
10:34AM 54.8000 -117.3833 108° East 510 587 35,000  Level Edmonton Center
10:35AM 54.7333 -117.1500 116° Southeast 510 587 35,000  Level Edmonton Center
10:40AM 54.4520 -115.9520 116° Southeast 511 588 35,000  Level FlightAware
10:41AM 54.4180 -115.8260 115° Southeast 510 587 35,000  Level FlightAware
10:42AM 54.3730 -115.6610 115° Southeast 511 588 35,000  Level FlightAware
10:43AM 54.2710 -115.2880 115° Southeast 511 588 35,000  Level FlightAware
10:45AM 54.1990 -115.0320 116° Southeast 516 594 35,000  Level FlightAware
10:46AM 54.1090 -114.7140 116° Southeast 517 595 35,000  Level FlightAware
10:47AM 54.0360 -114.4560 116° Southeast 520 598 35,000  Level FlightAware
10:48AM 53.9620 -114.2000 116° Southeast 518 596 35,000  Level FlightAware
10:50AM 53.8820 -113.9250 116° Southeast 519 597 35,000  Level FlightAware
10:51AM 53.8060 -113.6690 117° Southeast 519 597 35,000  Level FlightAware
10:52AM 53.7300 -113.4140 117° Southeast 519 597 35,000  Level FlightAware
10:53AM 53.6540 -113.1610 117° Southeast 519 597 35,000  Level FlightAware
10:54AM 53.5770 -112.9080 117° Southeast 522 601 35,000  Level FlightAware
10:55AM 53.5430 -112.7980 117° Southeast 521 600 35,000  Level FlightAware
10:56AM 53.4830 -112.6020 117° Southeast 520 598 35,000  Level FlightAware
10:57AM 53.4100 -112.3690 118° Southeast 521 600 35,000  Level FlightAware
10:58AM 53.3260 -112.1020 118° Southeast 521 600 35,000  Level FlightAware
10:59AM 53.2440 -111.8420 118° Southeast 521 600 35,000  Level FlightAware
11:00AM 53.1880 -111.6680 118° Southeast 518 596 35,000  Level FlightAware
11:01AM 53.1450 -111.5350 118° Southeast 518 596 35,000  Level FlightAware
11:02AM 53.0700 -111.3010 118° Southeast 518 596 35,000  Level FlightAware
11:03AM 53.0240 -111.1500 117° Southeast 518 596 35,000  Level FlightAware
11:03AM 52.9600 -110.9720 121° Southeast 35,000  Level FlightAware
11:06AM 52.7960 -110.4710 118° Southeast 35,000  Level FlightAware
11:06AM 52.7333 -110.3500 118° Southeast 520 598 35,000  Level Edmonton Center
11:07AM 52.6833 -110.1333 111° Southeast 510 587 35,000  Level Edmonton Center
11:08AM 52.6333 -109.9000 109° East 520 598 35,000  Level Edmonton Center
11:09AM 52.5833 -109.6667 109° East 520 598 35,000  Level Edmonton Center
11:10AM 52.5333 -109.4667 112° Southeast 520 598 35,000  Level Edmonton Center
11:11AM 52.4833 -109.2333 109° East 510 587 35,000  Level Edmonton Center
11:12AM 52.4333 -109.0167 111° Southeast 510 587 35,000  Level Edmonton Center
11:13AM 52.3667 -108.7833 115° Southeast 510 587 35,000  Level Edmonton Center
11:14AM 52.3333 -108.5667 104° East 510 587 35,000  Level Edmonton Center
11:15AM 52.2667 -108.3667 119° Southeast 520 598 35,000  Level Edmonton Center
11:16AM 52.2167 -108.1333 109° East 520 598 35,000  Level Edmonton Center
11:17AM 52.1667 -107.9167 111° Southeast 520 598 35,000  Level Edmonton Center
11:18AM 52.1167 -107.6833 109° East 520 598 35,000  Level Edmonton Center
11:19AM 52.0500 -107.4667 117° Southeast 520 598 35,000  Level Edmonton Center
11:20AM 52.0000 -107.2500 110° East 520 598 35,000  Level Edmonton Center
11:21AM 51.9500 -107.0167 109° East 510 587 35,000  Level Edmonton Center
11:22AM 51.9000 -106.8333 114° Southeast 510 587 35,000  Level Edmonton Center
11:23AM 51.8333 -106.6000 115° Southeast 510 587 35,000  Level Edmonton Center
11:24AM 51.7833 -106.3833 110° East 520 598 35,000  Level Edmonton Center
11:25AM 51.7167 -106.1667 116° Southeast 520 598 35,000  Level Edmonton Center
11:26AM 51.6667 -105.9500 110° East 520 598 35,000  Level Edmonton Center
11:27AM 51.6167 -105.7500 112° Southeast 520 598 35,000  Level Edmonton Center
11:28AM 51.5500 -105.5000 113° Southeast 520 598 35,000  Level Edmonton Center
11:29AM 51.4833 -105.3167 120° Southeast 520 598 35,000  Level Edmonton Center
11:30AM 51.4333 -105.1000 110° East 520 598 35,000  Level Edmonton Center
11:31AM 51.3667 -104.8833 116° Southeast 520 598 35,000  Level Edmonton Center
11:32AM 51.3167 -104.6667 110° East 510 587 35,000  Level Edmonton Center
11:33AM 51.2667 -104.4500 110° East 510 587 35,000  Level Edmonton Center
11:34AM 51.2000 -104.2667 120° Southeast 510 587 35,000  Level Edmonton Center
11:35AM 51.1500 -104.0500 110° East 510 587 35,000  Level Edmonton Center
11:36AM 51.1000 -103.8333 110° East 500 575 35,000  Level Edmonton Center
11:37AM 51.0333 -103.6167 116° Southeast 500 575 35,000  Level Edmonton Center
11:38AM 50.9500 -103.4333 126° Southeast 510 587 35,000  Level Edmonton Center
11:39AM 50.9167 -103.2500 106° East 510 587 35,000  Level Edmonton Center
11:40AM 50.8500 -103.1000 125° Southeast 510 587 35,000  Level Winnipeg Center
11:41AM 50.8000 -102.8667 109° East 510 587 35,000  Level Winnipeg Center
11:42AM 50.7500 -102.6833 113° Southeast 510 587 35,000  Level Winnipeg Center
11:43AM 50.6667 -102.4667 121° Southeast 520 598 35,000  Level Winnipeg Center
11:44AM 50.6167 -102.2667 111° Southeast 520 598 35,000  Level Winnipeg Center
11:45AM 50.5500 -102.0833 120° Southeast 510 587 35,000  Level Winnipeg Center
11:46AM 50.4833 -101.8667 116° Southeast 520 598 35,000  Level Winnipeg Center
11:47AM 50.4167 -101.6667 118° Southeast 520 598 35,000  Level Winnipeg Center
11:48AM 50.3667 -101.4500 110° East 510 587 35,000  Level Winnipeg Center
11:49AM 50.2833 -101.2667 125° Southeast 520 598 35,000  Level Winnipeg Center
11:50AM 50.2333 -101.0500 110° East 510 587 35,000  Level Winnipeg Center
11:51AM 50.1667 -100.8667 120° Southeast 510 587 35,000  Level Winnipeg Center
11:52AM 50.1000 -100.6667 117° Southeast 510 587 35,000  Level Winnipeg Center
11:53AM 50.0333 -100.4500 116° Southeast 510 587 35,000  Level Winnipeg Center
11:54AM 49.9667 -100.2667 119° Southeast 510 587 35,000  Level Winnipeg Center
11:55AM 49.9000 -100.0500 115° Southeast 510 587 35,000  Level Winnipeg Center
11:56AM 49.8500 -99.8667 113° Southeast 510 587 35,000  Level Winnipeg Center
11:57AM 49.7667 -99.6667 123° Southeast 510 587 35,000  Level Winnipeg Center
11:58AM 49.7000 -99.4833 119° Southeast 510 587 35,000  Level Winnipeg Center
11:59AM 49.6167 -99.2833 123° Southeast 510 587 35,000  Level Winnipeg Center
12:00PM 49.5667 -99.0833 111° Southeast 510 587 35,000  Level Winnipeg Center
12:01PM 49.5000 -98.9000 119° Southeast 510 587 35,000  Level Winnipeg Center
12:02PM 49.4333 -98.6833 115° Southeast 520 598 35,000  Level Winnipeg Center
12:03PM 49.3500 -98.5000 125° Southeast 510 587 35,000  Level Winnipeg Center
12:04PM 49.2833 -98.3333 121° Southeast 510 587 35,000  Level Winnipeg Center
12:05PM 49.2167 -98.1167 115° Southeast 510 587 35,000  Level Winnipeg Center
12:11PM 48.7950 -96.9720 115° Southeast 507 583 35,000  Level FlightAware
12:12PM 48.7480 -96.8490 120° Southeast 508 585 35,000  Level FlightAware
12:13PM 48.6930 -96.7040 120° Southeast 509 586 35,000  Level FlightAware
12:14PM 48.6400 -96.5680 120° Southeast 510 587 35,000  Level FlightAware
12:14PM 48.5930 -96.4470 120° Southeast 510 587 35,000  Level FlightAware
12:15PM 48.5450 -96.3230 120° Southeast 509 586 35,000  Level FlightAware
12:16PM 48.4910 -96.1840 120° Southeast 509 586 35,000  Level FlightAware
12:16PM 48.4440 -96.0630 120° Southeast 509 586 35,000  Level FlightAware
12:17PM 48.3770 -95.8950 121° Southeast 511 588 35,000  Level FlightAware
12:18PM 48.3230 -95.7570 120° Southeast 509 586 35,000  Level FlightAware
12:19PM 48.2730 -95.6330 121° Southeast 509 586 35,000  Level FlightAware
12:19PM 48.2360 -95.5390 121° Southeast 509 586 35,000  Level FlightAware
12:20PM 48.1850 -95.4130 121° Southeast 509 586 35,000  Level FlightAware
12:21PM 48.1340 -95.2840 121° Southeast 509 586 35,000  Level FlightAware
12:21PM 48.0930 -95.1820 121° Southeast 509 586 35,000  Level FlightAware
12:22PM 48.0510 -95.0790 121° Southeast 509 586 35,000  Level FlightAware
12:23PM 48.0100 -94.9760 121° Southeast 509 586 35,000  Level FlightAware
12:23PM 47.9690 -94.8740 121° Southeast 509 586 35,000  Level FlightAware
12:24PM 47.9280 -94.7710 121° Southeast 509 586 35,000  Level FlightAware
12:25PM 47.8760 -94.6430 121° Southeast 509 586 35,000  Level FlightAware
12:26PM 47.8350 -94.5410 121° Southeast 509 586 35,000  Level FlightAware
12:26PM 47.7930 -94.4390 121° Southeast 509 586 35,000  Level FlightAware
12:27PM 47.6520 -94.1240 124° Southeast 508 585 35,000  Level FlightAware
12:28PM 47.5970 -93.9950 122° Southeast 508 585 35,000  Level FlightAware
12:28PM 47.5540 -93.8960 123° Southeast 510 587 35,000  Level FlightAware
12:29PM 47.4950 -93.7580 122° Southeast 509 586 35,000  Level FlightAware
12:30PM 47.4450 -93.6420 122° Southeast 510 587 35,000  Level FlightAware
12:31PM 47.3850 -93.5040 123° Southeast 511 588 35,000  Level FlightAware
12:31PM 47.3290 -93.3760 123° Southeast 513 590 35,000  Level FlightAware
12:32PM 47.2780 -93.2590 123° Southeast 513 590 35,000  Level FlightAware
12:33PM 47.2260 -93.1420 123° Southeast 514 592 35,000 540 Level FlightAware
12:33PM 47.1660 -93.0080 123° Southeast 520 598 35,800 1,020 Climbing FlightAware
12:34PM 47.1140 -92.8900 123° Southeast 525 604 36,500 900 Climbing FlightAware
12:35PM 47.0640 -92.7620 120° Southeast 539 620 37,000 300 Climbing FlightAware
12:35PM 47.0250 -92.6130 111° Southeast 541 623 37,000  Level FlightAware
12:36PM 46.9870 -92.4780 112° Southeast 541 623 37,000  Level FlightAware
12:37PM 46.9420 -92.3240 113° Southeast 543 625 37,000  Level FlightAware
12:38PM 46.9000 -92.1880 114° Southeast 543 625 37,000  Level FlightAware
12:38PM 46.8610 -92.0520 113° Southeast 546 628 37,000  Level FlightAware
12:39PM 46.8180 -91.9030 113° Southeast 547 629 37,000  Level FlightAware
12:40PM 46.7780 -91.7650 113° Southeast 547 629 37,000  Level FlightAware
12:40PM 46.7390 -91.6290 113° Southeast 547 629 37,000  Level FlightAware
12:41PM 46.6940 -91.4740 113° Southeast 547 629 37,000  Level FlightAware
12:42PM 46.6540 -91.3380 113° Southeast 546 628 37,000  Level FlightAware
12:42PM 46.6100 -91.1900 113° Southeast 545 627 37,000  Level FlightAware
12:43PM 46.5710 -91.0570 113° Southeast 543 625 37,000  Level FlightAware
12:44PM 46.5250 -90.9030 113° Southeast 541 623 37,000  Level FlightAware
12:45PM 46.4850 -90.7710 114° Southeast 541 623 37,000  Level FlightAware
12:45PM 46.4450 -90.6380 114° Southeast 541 623 37,000  Level FlightAware
12:46PM 46.4000 -90.4910 114° Southeast 540 621 37,000  Level FlightAware
12:47PM 46.3600 -90.3590 114° Southeast 541 623 37,000  Level FlightAware
12:47PM 46.3130 -90.2070 114° Southeast 541 623 37,000  Level FlightAware
12:48PM 46.2810 -90.1000 113° Southeast 541 623 37,000  Level FlightAware
12:49PM 46.2480 -89.9870 113° Southeast 541 623 37,000  Level FlightAware
12:49PM 46.2070 -89.8460 113° Southeast 541 623 37,000  Level FlightAware
12:50PM 46.1730 -89.7320 113° Southeast 541 623 37,000  Level FlightAware
12:51PM 46.1060 -89.5450 117° Southeast 543 625 37,000  Level FlightAware
12:52PM 46.0630 -89.4070 114° Southeast 543 625 37,000  Level FlightAware
12:52PM 46.0290 -89.2950 114° Southeast 543 625 37,000  Level FlightAware
12:53PM 45.9940 -89.1830 114° Southeast 543 625 37,000  Level FlightAware
12:54PM 45.9590 -89.0700 114° Southeast 543 625 37,000  Level FlightAware
12:54PM 45.9240 -88.9580 114° Southeast 543 625 37,000  Level FlightAware
12:55PM 45.8810 -88.8180 114° Southeast 543 625 37,000  Level FlightAware
12:56PM 45.8460 -88.7060 114° Southeast 543 625 37,000  Level FlightAware
12:56PM 45.8110 -88.5940 114° Southeast 543 625 37,000  Level FlightAware
12:57PM 45.7770 -88.4820 113° Southeast 543 625 37,000  Level FlightAware
12:58PM 45.7420 -88.3700 114° Southeast 543 625 37,000  Level FlightAware
12:59PM 45.6990 -88.2300 114° Southeast 543 625 37,000  Level FlightAware
12:59PM 45.5500 -87.8450 119° Southeast 544 626 37,000  Level FlightAware
01:00PM 45.5140 -87.7340 115° Southeast 544 626 37,000  Level FlightAware
01:01PM 45.4570 -87.5730 117° Southeast 549 632 37,000  Level FlightAware
01:02PM 45.4110 -87.4390 116° Southeast 550 633 37,000  Level FlightAware
01:02PM 45.3650 -87.3060 116° Southeast 552 635 37,000  Level FlightAware
01:03PM 45.3130 -87.1550 116° Southeast 554 638 37,000  Level FlightAware
01:04PM 45.2710 -87.0330 116° Southeast 556 640 37,000  Level FlightAware
01:04PM 45.2180 -86.8820 116° Southeast 557 641 37,000  Level FlightAware
01:05PM 45.1770 -86.7640 116° Southeast 558 642 37,000  Level FlightAware
01:06PM 45.1260 -86.6200 117° Southeast 559 643 37,000  Level FlightAware
01:06PM 45.0850 -86.5040 117° Southeast 559 643 37,000  Level FlightAware
01:07PM 45.0280 -86.3410 116° Southeast 560 644 37,000  Level FlightAware
01:08PM 44.9780 -86.1990 116° Southeast 560 644 37,000  Level FlightAware
01:09PM 44.9280 -86.0630 117° Southeast 561 646 37,000  Level FlightAware
01:09PM 44.8800 -85.9290 117° Southeast 561 646 37,000  Level FlightAware
01:10PM 44.8300 -85.7900 117° Southeast 561 646 37,000  Level FlightAware
01:11PM 44.7810 -85.6540 117° Southeast 562 647 37,000  Level FlightAware
01:11PM 44.7270 -85.5070 117° Southeast 563 648 37,000  Level FlightAware
01:12PM 44.6790 -85.3750 117° Southeast 564 649 37,000  Level FlightAware
01:13PM 44.6260 -85.2290 117° Southeast 564 649 37,000  Level FlightAware
01:13PM 44.5770 -85.0960 117° Southeast 565 650 37,000  Level FlightAware
01:14PM 44.5320 -84.9770 118° Southeast 566 651 37,000  Level FlightAware
01:15PM 44.4760 -84.8260 117° Southeast 567 652 37,000  Level FlightAware
01:16PM 44.4280 -84.6970 117° Southeast 568 654 37,000  Level FlightAware
01:16PM 44.3730 -84.5500 118° Southeast 570 656 37,000  Level FlightAware
01:17PM 44.3310 -84.4370 117° Southeast 572 658 37,000  Level FlightAware
01:18PM 44.2720 -84.2810 118° Southeast 573 659 37,000  Level FlightAware
01:18PM 44.2170 -84.1380 118° Southeast 574 661 37,000  Level FlightAware
01:19PM 44.1670 -84.0060 118° Southeast 573 659 37,000  Level FlightAware
01:20PM 44.1100 -83.8570 118° Southeast 573 659 37,000  Level FlightAware
01:20PM 44.0630 -83.7330 118° Southeast 571 657 37,000  Level FlightAware
01:21PM 44.0140 -83.6080 119° Southeast 570 656 37,000  Level FlightAware
01:22PM 43.9560 -83.4570 118° Southeast 569 655 37,000  Level FlightAware
01:23PM 43.9060 -83.3300 119° Southeast 570 656 37,000  Level FlightAware
01:23PM 43.8480 -83.1810 118° Southeast 569 655 37,000  Level FlightAware
01:24PM 43.8000 -83.0580 118° Southeast 568 654 37,000  Level FlightAware
01:25PM 43.7480 -82.9260 119° Southeast 569 655 37,000  Level FlightAware
01:25PM 43.6920 -82.7850 119° Southeast 570 656 37,000  Level FlightAware
01:26PM 43.6520 -82.6820 118° Southeast 571 657 37,000  Level FlightAware
01:27PM 43.5980 -82.5480 119° Southeast 570 656 37,000  Level FlightAware
01:27PM 43.5440 -82.4130 119° Southeast 570 656 37,000  Level FlightAware
01:29PM 43.4420 -82.1590 119° Southeast 574 661 37,000  Level FlightAware
01:30PM 43.3730 -81.9900 119° Southeast 577 664 37,000  Level FlightAware
01:30PM 43.3140 -81.8440 119° Southeast 578 665 37,000  Level FlightAware
01:31PM 43.2750 -81.7480 119° Southeast 578 665 37,000  Level FlightAware
01:32PM 43.2180 -81.6110 120° Southeast 579 666 37,000  Level FlightAware
01:32PM 43.1630 -81.4770 119° Southeast 580 667 37,000  Level FlightAware
01:33PM 43.1080 -81.3440 119° Southeast 579 666 37,000  Level FlightAware
01:34PM 43.0570 -81.2210 120° Southeast 578 665 37,000  Level FlightAware
01:35PM 42.9940 -81.0680 119° Southeast 575 662 37,000  Level FlightAware
01:35PM 42.9340 -80.9170 118° Southeast 572 658 37,000  Level FlightAware
01:36PM 42.8780 -80.7760 118° Southeast 568 654 37,000  Level FlightAware
01:37PM 42.8090 -80.6050 119° Southeast 562 647 37,000  Level FlightAware
01:38PM 42.7530 -80.4690 119° Southeast 557 641 37,000  Level FlightAware
01:38PM 42.7030 -80.3470 119° Southeast 555 639 37,000  Level FlightAware
01:39PM 42.6490 -80.2230 121° Southeast 553 636 37,000  Level FlightAware
01:40PM 42.5640 -80.1240 139° Southeast 542 624 37,000  Level FlightAware
01:40PM 42.4930 -80.0690 150° Southeast 530 610 37,000  Level FlightAware
01:41PM 42.4250 -80.0160 150° Southeast 530 610 37,000  Level FlightAware
01:42PM 42.2540 -79.9100 155° Southeast 513 590 37,000  Level FlightAware
01:43PM 42.1510 -79.8560 159° South 511 588 37,000  Level FlightAware
01:44PM 42.0640 -79.8120 159° South 512 589 37,000  Level FlightAware
01:44PM 41.9750 -79.7470 151° Southeast 530 610 37,000  Level FlightAware
01:45PM 41.8960 -79.6520 138° Southeast 539 620 37,000  Level FlightAware
01:46PM 41.8140 -79.5540 138° Southeast 537 618 37,000  Level FlightAware
01:46PM 41.7550 -79.4420 125° Southeast 533 613 37,000  Level FlightAware
01:47PM 41.7310 -79.3230 105° East 516 594 37,000  Level FlightAware
01:48PM 41.7340 -79.1780 88° East 502 578 37,000  Level FlightAware
01:48PM 41.7410 -79.0550 86° East 505 581 37,000  Level FlightAware
01:49PM 41.7470 -78.9310 86° East 506 582 37,000  Level FlightAware
01:50PM 41.7540 -78.7890 86° East 504 580 37,000  Level FlightAware
01:51PM 41.7600 -78.6650 86° East 503 579 37,000  Level FlightAware
01:51PM 41.7660 -78.5250 87° East 498 573 37,000  Level FlightAware
01:52PM 41.7720 -78.4050 86° East 495 570 37,000  Level FlightAware
01:53PM 41.7780 -78.2640 87° East 493 567 37,000  Level FlightAware
01:53PM 41.7830 -78.1440 87° East 492 566 37,000 -240 Level FlightAware
01:54PM 41.7880 -78.0240 87° East 490 564 36,700 -1,020 Descending FlightAware
01:55PM 41.7940 -77.8820 87° East 495 570 35,600 -900 Descending FlightAware
01:55PM 41.7990 -77.7610 87° East 490 564 35,500 -300 Descending FlightAware
01:56PM 41.8030 -77.6430 87° East 495 570 35,200 -360 Descending FlightAware
01:57PM 41.7840 -77.5060 100° East 496 571 35,000 -300 Descending FlightAware
01:58PM 41.7540 -77.3920 109° East 484 557 34,800 -720 Descending FlightAware
01:58PM 41.7230 -77.2770 110° East 469 540 34,000 -1,320 Descending FlightAware
01:59PM 41.6900 -77.1560 110° East 480 552 33,000 -780 Descending FlightAware
02:00PM 41.6590 -77.0430 110° East 486 559 33,000  Level FlightAware
02:00PM 41.6240 -76.9170 110° East 484 557 33,000  Level FlightAware
02:01PM 41.5940 -76.8070 110° East 481 554 33,000  Level FlightAware
02:01PM 41.5777 -76.7479 110° East 480 552 33,000  Level FlightAware ADS-B
02:02PM 41.5530 -76.6593 110° East 479 551 33,000  Level FlightAware ADS-B
02:02PM 41.5287 -76.5723 110° East 473 544 33,000  Level FlightAware ADS-B
02:03PM 41.5058 -76.4903 110° East 471 542 33,000  Level FlightAware ADS-B
02:04PM 41.4701 -76.3630 110° East 469 540 33,000 -240 Level FlightAware ADS-B
02:04PM 41.4425 -76.2661 111° Southeast 461 531 32,700 -1,260 Descending FlightAware ADS-B
02:05PM 41.4197 -76.1865 111° Southeast 458 527 31,600 -2,460 Descending FlightAware ADS-B
02:05PM 41.3958 -76.1035 111° Southeast 460 529 30,200 -2,280 Descending FlightAware ADS-B
02:06PM 41.3732 -76.0243 111° Southeast 452 520 29,300 -1,500 Descending FlightAware ADS-B
02:06PM 41.3510 -75.9467 111° Southeast 442 509 28,700 -1,260 Descending FlightAware ADS-B
02:07PM 41.3280 -75.8676 111° Southeast 431 496 28,000 -1,140 Descending FlightAware ADS-B
02:07PM 41.3046 -75.7861 111° Southeast 424 488 27,500 -1,080 Descending FlightAware ADS-B
02:08PM 41.2822 -75.7149 113° Southeast 418 481 26,900 -1,440 Descending FlightAware ADS-B
02:08PM 41.2580 -75.6494 116° Southeast 415 478 26,100 -1,560 Descending FlightAware ADS-B
02:09PM 41.2356 -75.5787 113° Southeast 411 473 25,400 -1,440 Descending FlightAware ADS-B
02:09PM 41.2133 -75.5085 113° Southeast 407 468 24,700 -1,500 Descending FlightAware ADS-B
02:10PM 41.1903 -75.4399 114° Southeast 403 464 23,900 -1,500 Descending FlightAware ADS-B
02:10PM 41.1663 -75.3709 115° Southeast 396 456 23,200 -900 Descending FlightAware ADS-B
02:11PM 41.1424 -75.3027 115° Southeast 379 436 23,000 -960 Descending FlightAware ADS-B
02:11PM 41.1183 -75.2341 115° Southeast 366 421 22,200 -1,500 Descending FlightAware ADS-B
02:12PM 41.0962 -75.1713 115° Southeast 357 411 21,400 -900 Descending FlightAware ADS-B
02:12PM 41.0737 -75.1070 115° Southeast 379 436 21,300 -420 Descending FlightAware ADS-B
02:13PM 41.0500 -75.0392 115° Southeast 364 419 21,000 -300 Descending FlightAware ADS-B
02:14PM 41.0289 -74.9794 115° Southeast 356 410 21,000 -120 Level FlightAware ADS-B
02:14PM 41.0118 -74.9307 115° Southeast 354 407 20,900 -360 Descending FlightAware ADS-B
02:14PM 41.0065 -74.9135 112° Southeast 354 407 20,800 -1,320 Descending FlightAware ADS-B
02:14PM 40.9963 -74.8641 105° East 350 403 20,200 -1,620 Descending FlightAware ADS-B
02:15PM 40.9932 -74.8421 101° East 347 399 19,900 -1,620 Descending FlightAware ADS-B
02:15PM 40.9871 -74.7786 97° East 344 396 19,100 -900 Descending FlightAware ADS-B
02:16PM 40.9801 -74.7107 98° East 343 395 19,000 -120 Descending FlightAware ADS-B
02:16PM 40.9716 -74.6368 99° East 344 396 19,000  Level FlightAware ADS-B
02:17PM 40.9638 -74.5744 99° East 343 395 19,000  Level FlightAware ADS-B
02:17PM 40.9562 -74.5120 99° East 341 392 19,000  Level FlightAware ADS-B
02:18PM 40.9481 -74.4467 99° East 342 394 19,000  Level FlightAware ADS-B
02:18PM 40.9403 -74.3824 99° East 346 398 19,000  Level FlightAware ADS-B
02:18PM 40.9395 -74.3748 98° East 345 397 19,000  Level FlightAware ADS-B
02:19PM 40.9324 -74.3173 99° East 345 397 19,000  Level FlightAware ADS-B
02:19PM 40.9298 -74.2972 100° East 346 398 19,000  Level FlightAware ADS-B
02:19PM 40.9276 -74.2778 99° East 345 397 19,000  Level FlightAware ADS-B
02:19PM 40.9247 -74.2596 102° East 344 396 19,000  Level FlightAware ADS-B
02:20PM 40.9164 -74.2321 112° Southeast 345 397 19,000  Level FlightAware ADS-B
02:20PM 40.9022 -74.1953 117° Southeast 348 400 19,000 -240 Level FlightAware ADS-B
02:20PM 40.8940 -74.1737 117° Southeast 346 398 18,900 -1,080 Descending FlightAware ADS-B
02:20PM 40.8771 -74.1300 117° Southeast 341 392 18,400 -1,500 Descending FlightAware ADS-B
02:21PM 40.8702 -74.1121 117° Southeast 338 389 18,100 -1,500 Descending FlightAware ADS-B
02:21PM 40.8544 -74.0719 117° Southeast 335 386 17,600 -1,620 Descending FlightAware ADS-B
02:21PM 40.8488 -74.0570 116° Southeast 334 384 17,300 -1,560 Descending FlightAware ADS-B
02:22PM 40.8276 -74.0016 117° Southeast 326 375 16,600 -1,320 Descending FlightAware ADS-B
02:22PM 40.8080 -73.9520 118° Southeast 319 367 16,000 -1,500 Descending FlightAware
02:22PM 40.8058 -73.9451 113° Southeast 320 368 15,800 -2,220 Descending FlightAware ADS-B
02:23PM 40.7851 -73.8916 117° Southeast 321 369 14,800 -1,920 Descending FlightAware ADS-B
02:23PM 40.7671 -73.8459 117° Southeast 321 369 14,000 -1,680 Descending FlightAware ADS-B
02:23PM 40.7609 -73.8302 118° Southeast 314 361 13,800 -1,500 Descending FlightAware ADS-B
02:24PM 40.7318 -73.7580 118° Southeast 310 357 12,700 -720 Descending FlightAware ADS-B
02:25PM 40.6960 -73.6710 118° Southeast 308 354 12,700 -300 Level FlightAware
02:25PM 40.6732 -73.6146 118° Southeast 303 349 12,300 -900 Descending FlightAware ADS-B
02:26PM 40.6500 -73.5575 118° Southeast 302 348 11,700 -780 Descending FlightAware ADS-B
02:26PM 40.6405 -73.5369 121° Southeast 303 349 11,700 -360 Level FlightAware ADS-B
02:26PM 40.6361 -73.5302 131° Southeast 300 345 11,600 -1,200 Descending FlightAware ADS-B
02:26PM 40.6309 -73.5239 137° Southeast 299 344 11,500 -1,020 Descending FlightAware ADS-B
02:27PM 40.6226 -73.5173 149° Southeast 297 342 11,400 -1,200 Descending FlightAware ADS-B
02:27PM 40.6185 -73.5150 157° South 297 342 11,300 -900 Descending FlightAware ADS-B
02:27PM 40.6132 -73.5126 161° South 295 339 11,300 -1,200 Level FlightAware ADS-B
02:27PM 40.5721 -73.5021 169° South 287 330 10,600 -1,680 Descending FlightAware ADS-B
02:27PM 40.5471 -73.5091 192° South 283 326 9,900 -2,160 Descending FlightAware ADS-B
02:28PM 40.5399 -73.5137 206° Southwest 281 323 9,700 -1,620 Descending FlightAware ADS-B
02:28PM 40.5208 -73.5263 207° Southwest 273 314 9,300 -1,140 Descending FlightAware ADS-B
02:28PM 40.5042 -73.5374 207° Southwest 259 298 9,100 -1,140 Descending FlightAware ADS-B
02:28PM 40.4870 -73.5490 207° Southwest 253 291 8,700 -1,560 Descending FlightAware ADS-B
02:29PM 40.4725 -73.5588 207° Southwest 244 281 8,300 -2,040 Descending FlightAware ADS-B
02:29PM 40.4566 -73.5701 208° Southwest 243 280 7,700 -2,220 Descending FlightAware ADS-B
02:29PM 40.4400 -73.5819 208° Southwest 243 280 7,100 -2,160 Descending FlightAware ADS-B
02:30PM 40.4205 -73.5959 209° Southwest 241 277 6,400 -2,280 Descending FlightAware ADS-B
02:30PM 40.4055 -73.6070 209° Southwest 241 277 5,800 -2,340 Descending FlightAware ADS-B
02:30PM 40.3875 -73.6201 209° Southwest 238 274 5,100 -1,920 Descending FlightAware ADS-B
02:31PM 40.3640 -73.6570 230° Southwest 234 269 4,000 -1,380 Descending FlightAware
02:31PM 40.3530 -73.6940 249° West 231 266 3,700 -360 Descending FlightAware
02:32PM 40.3410 -73.7300 246° West 230 265 3,700  Level FlightAware
02:32PM 40.3290 -73.7680 248° West 231 266 3,700  Level FlightAware
02:33PM 40.3180 -73.8050 249° West 231 266 3,700  Level FlightAware
02:33PM 40.3070 -73.8410 248° West 230 265 3,700  Level FlightAware
02:33PM 40.3025 -73.8587 252° West 230 265 3,700 180 Level FlightAware ADS-B
02:33PM 40.3041 -73.8799 276° West 224 258 3,800 240 Climbing FlightAware ADS-B
02:34PM 40.3063 -73.8871 292° West 220 253 3,800 -240 Level FlightAware ADS-B
02:34PM 40.3148 -73.9119 294° West 225 259 3,700 -180 Descending FlightAware ADS-B
02:34PM 40.3239 -73.9382 294° West 225 259 3,700  Level FlightAware ADS-B
02:35PM 40.3314 -73.9603 294° West 223 257 3,700  Level FlightAware ADS-B
02:35PM 40.3377 -73.9790 294° West 216 249 3,700  Level FlightAware ADS-B
02:35PM 40.3412 -73.9890 295° West 213 245 3,700  Level FlightAware ADS-B
02:35PM 40.3459 -73.9974 306° West 209 241 3,700  Level FlightAware ADS-B
02:35PM 40.3517 -74.0030 324° Northwest 206 237 3,700  Level FlightAware ADS-B
02:35PM 40.3634 -74.0074 344° North 192 221 3,700  Level FlightAware ADS-B
02:36PM 40.3741 -74.0092 353° North 177 204 3,700  Level FlightAware ADS-B
02:36PM 40.3771 -74.0090 North 175 201 3,700  Level FlightAware ADS-B
02:36PM 40.3882 -74.0057 13° North 166 191 3,700 300 Level FlightAware ADS-B
02:36PM 40.3902 -74.0041 31° Northeast 165 190 3,800  Climbing FlightAware ADS-B
02:36PM 40.4039 -73.9930 32° Northeast 164 189 3,700 -180 Descending FlightAware ADS-B
02:37PM 40.4146 -73.9842 32° Northeast 164 189 3,700  Level FlightAware ADS-B
02:37PM 40.4262 -73.9767 26° Northeast 164 189 3,700  Level FlightAware ADS-B
02:37PM 40.4381 -73.9675 30° Northeast 164 189 3,700 -180 Level FlightAware ADS-B
02:38PM 40.4551 -73.9547 30° Northeast 164 189 3,600 -660 Descending FlightAware ADS-B
02:38PM 40.4760 -73.9390 30° Northeast 156 180 3,100 -960 Descending FlightAware
02:39PM 40.4900 -73.9280 31° Northeast 151 174 2,700 -900 Descending FlightAware
02:39PM 40.5090 -73.9140 29° Northeast 144 166 2,300 -900 Descending FlightAware
02:40PM 40.5230 -73.9030 31° Northeast 139 160 1,900 -900 Descending FlightAware
02:40PM 40.5400 -73.8900 30° Northeast 140 161 1,500 -840 Descending FlightAware
02:40PM 40.5490 -73.8830 31° Northeast 138 159 1,300 -780 Descending FlightAware
02:41PM 40.5620 -73.8730 30° Northeast 140 161 1,000 -660 Descending FlightAware
02:41PM 40.5780 -73.8610 30° Northeast 136 157 700 -780 Descending FlightAware
02:42PM 40.5920 -73.8500 31° Northeast 138 159 300 -900 Descending FlightAware
02:42PM 40.6020 -73.8430 28° Northeast 136 157 100 -840 Descending FlightAware
02:42PM 40.6170 -73.8310 31° Northeast 148 170 -240 Descending FlightAware